sensor_id;sensor_type;location;lat;lon;timestamp;temperature;humidity
42095;DHT22;27753;55.724;37.612;2023-09-18T00:01:57;12.70;95.00
42095;DHT22;27753;55.724;37.612;2023-09-18T00:04:23;12.70;94.90
42095;DHT22;27753;55.724;37.612;2023-09-18T00:06:50;12.80;94.70
42095;DHT22;27753;55.724;37.612;2023-09-18T00:09:17;12.90;94.50
42095;DHT22;27753;55.724;37.612;2023-09-18T00:11:42;13.00;94.40
42095;DHT22;27753;55.724;37.612;2023-09-18T00:14:09;13.10;94.20
42095;DHT22;27753;55.724;37.612;2023-09-18T00:16:35;13.20;94.00
42095;DHT22;27753;55.724;37.612;2023-09-18T00:19:01;13.30;93.90
42095;DHT22;27753;55.724;37.612;2023-09-18T00:21:28;13.30;93.60
42095;DHT22;27753;55.724;37.612;2023-09-18T00:23:56;13.30;93.50
42095;DHT22;27753;55.724;37.612;2023-09-18T00:26:24;13.30;93.40
42095;DHT22;27753;55.724;37.612;2023-09-18T00:28:50;13.30;93.40
42095;DHT22;27753;55.724;37.612;2023-09-18T00:31:16;13.20;93.40
42095;DHT22;27753;55.724;37.612;2023-09-18T00:33:42;13.20;93.50
42095;DHT22;27753;55.724;37.612;2023-09-18T00:36:08;13.30;93.50
42095;DHT22;27753;55.724;37.612;2023-09-18T00:38:33;13.30;93.50
42095;DHT22;27753;55.724;37.612;2023-09-18T00:40:59;13.30;93.40
42095;DHT22;27753;55.724;37.612;2023-09-18T00:43:25;13.40;93.30
42095;DHT22;27753;55.724;37.612;2023-09-18T00:45:51;13.40;93.30
42095;DHT22;27753;55.724;37.612;2023-09-18T00:48:17;13.30;93.10
42095;DHT22;27753;55.724;37.612;2023-09-18T00:50:47;13.30;93.10
42095;DHT22;27753;55.724;37.612;2023-09-18T00:53:18;13.30;93.20
42095;DHT22;27753;55.724;37.612;2023-09-18T00:55:45;13.30;93.20
42095;DHT22;27753;55.724;37.612;2023-09-18T00:58:11;13.40;93.20
42095;DHT22;27753;55.724;37.612;2023-09-18T01:00:37;13.50;93.10
42095;DHT22;27753;55.724;37.612;2023-09-18T01:03:04;13.60;92.90
42095;DHT22;27753;55.724;37.612;2023-09-18T01:05:34;13.70;92.80
42095;DHT22;27753;55.724;37.612;2023-09-18T01:08:01;13.80;92.60
42095;DHT22;27753;55.724;37.612;2023-09-18T01:10:35;13.80;92.40
42095;DHT22;27753;55.724;37.612;2023-09-18T01:13:10;13.80;92.40
42095;DHT22;27753;55.724;37.612;2023-09-18T01:16:15;13.90;92.30
42095;DHT22;27753;55.724;37.612;2023-09-18T01:18:52;14.00;92.30
42095;DHT22;27753;55.724;37.612;2023-09-18T01:21:20;14.00;92.30
42095;DHT22;27753;55.724;37.612;2023-09-18T01:23:47;14.00;92.40
42095;DHT22;27753;55.724;37.612;2023-09-18T01:26:14;14.00;92.30
42095;DHT22;27753;55.724;37.612;2023-09-18T01:28:40;14.00;92.10
42095;DHT22;27753;55.724;37.612;2023-09-18T01:31:06;14.00;92.10
42095;DHT22;27753;55.724;37.612;2023-09-18T01:33:33;13.90;92.20
42095;DHT22;27753;55.724;37.612;2023-09-18T01:36:00;13.80;92.30
42095;DHT22;27753;55.724;37.612;2023-09-18T01:38:27;13.80;92.40
42095;DHT22;27753;55.724;37.612;2023-09-18T01:40:54;13.70;92.50
42095;DHT22;27753;55.724;37.612;2023-09-18T01:43:20;13.70;92.60
42095;DHT22;27753;55.724;37.612;2023-09-18T01:45:46;13.70;92.70
42095;DHT22;27753;55.724;37.612;2023-09-18T01:48:13;13.70;92.80
42095;DHT22;27753;55.724;37.612;2023-09-18T01:50:39;13.70;92.80
42095;DHT22;27753;55.724;37.612;2023-09-18T01:53:06;13.70;92.80
42095;DHT22;27753;55.724;37.612;2023-09-18T01:55:32;13.70;92.70
42095;DHT22;27753;55.724;37.612;2023-09-18T01:57:58;13.70;92.80
42095;DHT22;27753;55.724;37.612;2023-09-18T02:00:24;13.70;92.80
42095;DHT22;27753;55.724;37.612;2023-09-18T02:02:50;13.60;92.80
42095;DHT22;27753;55.724;37.612;2023-09-18T02:05:16;13.50;93.00
42095;DHT22;27753;55.724;37.612;2023-09-18T02:07:42;13.40;93.10
42095;DHT22;27753;55.724;37.612;2023-09-18T02:10:08;13.40;93.30
42095;DHT22;27753;55.724;37.612;2023-09-18T02:12:34;13.30;93.40
42095;DHT22;27753;55.724;37.612;2023-09-18T02:14:59;13.30;93.50
42095;DHT22;27753;55.724;37.612;2023-09-18T02:17:30;13.30;93.60
42095;DHT22;27753;55.724;37.612;2023-09-18T02:19:56;13.30;93.70
42095;DHT22;27753;55.724;37.612;2023-09-18T02:22:21;13.40;93.70
42095;DHT22;27753;55.724;37.612;2023-09-18T02:24:47;13.50;93.60
42095;DHT22;27753;55.724;37.612;2023-09-18T02:27:13;13.50;93.40
42095;DHT22;27753;55.724;37.612;2023-09-18T02:29:39;13.60;93.30
42095;DHT22;27753;55.724;37.612;2023-09-18T02:32:05;13.60;93.30
42095;DHT22;27753;55.724;37.612;2023-09-18T02:34:31;13.60;93.30
42095;DHT22;27753;55.724;37.612;2023-09-18T02:36:56;13.60;93.30
42095;DHT22;27753;55.724;37.612;2023-09-18T02:39:22;13.50;93.50
42095;DHT22;27753;55.724;37.612;2023-09-18T02:41:48;13.50;93.30
42095;DHT22;27753;55.724;37.612;2023-09-18T02:44:14;13.40;93.40
42095;DHT22;27753;55.724;37.612;2023-09-18T02:46:41;13.30;93.60
42095;DHT22;27753;55.724;37.612;2023-09-18T02:49:07;13.30;93.70
42095;DHT22;27753;55.724;37.612;2023-09-18T02:51:33;13.20;94.10
42095;DHT22;27753;55.724;37.612;2023-09-18T02:53:59;13.10;93.90
42095;DHT22;27753;55.724;37.612;2023-09-18T02:56:25;13.10;94.10
42095;DHT22;27753;55.724;37.612;2023-09-18T02:58:51;13.10;94.20
42095;DHT22;27753;55.724;37.612;2023-09-18T03:01:17;13.10;94.20
42095;DHT22;27753;55.724;37.612;2023-09-18T03:03:43;13.10;94.20
42095;DHT22;27753;55.724;37.612;2023-09-18T03:06:09;13.20;94.20
42095;DHT22;27753;55.724;37.612;2023-09-18T03:08:35;13.20;94.20
42095;DHT22;27753;55.724;37.612;2023-09-18T03:11:01;13.20;94.20
42095;DHT22;27753;55.724;37.612;2023-09-18T03:13:28;13.20;94.20
42095;DHT22;27753;55.724;37.612;2023-09-18T03:15:54;13.30;94.30
42095;DHT22;27753;55.724;37.612;2023-09-18T03:18:21;13.30;94.20
42095;DHT22;27753;55.724;37.612;2023-09-18T03:20:47;13.40;94.10
42095;DHT22;27753;55.724;37.612;2023-09-18T03:23:13;13.50;94.10
42095;DHT22;27753;55.724;37.612;2023-09-18T03:25:39;13.50;94.10
42095;DHT22;27753;55.724;37.612;2023-09-18T03:28:05;13.60;94.10
42095;DHT22;27753;55.724;37.612;2023-09-18T03:30:31;13.60;94.00
42095;DHT22;27753;55.724;37.612;2023-09-18T03:32:57;13.60;93.80
42095;DHT22;27753;55.724;37.612;2023-09-18T03:35:23;13.70;93.80
42095;DHT22;27753;55.724;37.612;2023-09-18T03:37:50;13.70;93.70
42095;DHT22;27753;55.724;37.612;2023-09-18T03:40:17;13.70;93.80
42095;DHT22;27753;55.724;37.612;2023-09-18T03:42:43;13.70;93.60
42095;DHT22;27753;55.724;37.612;2023-09-18T03:45:09;13.70;93.60
42095;DHT22;27753;55.724;37.612;2023-09-18T03:47:40;13.70;93.70
42095;DHT22;27753;55.724;37.612;2023-09-18T03:50:10;13.70;93.70
42095;DHT22;27753;55.724;37.612;2023-09-18T03:52:36;13.80;93.70
42095;DHT22;27753;55.724;37.612;2023-09-18T03:55:02;13.80;93.70
42095;DHT22;27753;55.724;37.612;2023-09-18T03:57:28;13.90;93.60
42095;DHT22;27753;55.724;37.612;2023-09-18T03:59:54;13.90;93.50
42095;DHT22;27753;55.724;37.612;2023-09-18T04:02:23;13.90;93.50
42095;DHT22;27753;55.724;37.612;2023-09-18T04:04:53;13.90;93.50
42095;DHT22;27753;55.724;37.612;2023-09-18T04:07:22;13.90;93.60
42095;DHT22;27753;55.724;37.612;2023-09-18T04:09:48;14.00;93.50
42095;DHT22;27753;55.724;37.612;2023-09-18T04:12:14;14.00;93.50
42095;DHT22;27753;55.724;37.612;2023-09-18T04:14:41;14.10;93.50
42095;DHT22;27753;55.724;37.612;2023-09-18T04:17:07;14.10;93.40
42095;DHT22;27753;55.724;37.612;2023-09-18T04:19:32;14.10;93.40
42095;DHT22;27753;55.724;37.612;2023-09-18T04:21:58;14.20;93.30
42095;DHT22;27753;55.724;37.612;2023-09-18T04:24:25;14.20;93.40
42095;DHT22;27753;55.724;37.612;2023-09-18T04:26:51;14.20;93.30
42095;DHT22;27753;55.724;37.612;2023-09-18T04:29:18;14.20;93.20
42095;DHT22;27753;55.724;37.612;2023-09-18T04:31:45;14.20;93.20
42095;DHT22;27753;55.724;37.612;2023-09-18T04:34:11;14.30;93.30
42095;DHT22;27753;55.724;37.612;2023-09-18T04:36:37;14.20;93.20
42095;DHT22;27753;55.724;37.612;2023-09-18T04:39:06;14.30;93.20
42095;DHT22;27753;55.724;37.612;2023-09-18T04:41:35;14.30;93.30
42095;DHT22;27753;55.724;37.612;2023-09-18T04:44:00;14.30;93.20
42095;DHT22;27753;55.724;37.612;2023-09-18T04:46:26;14.40;93.20
42095;DHT22;27753;55.724;37.612;2023-09-18T04:48:52;14.40;93.20
42095;DHT22;27753;55.724;37.612;2023-09-18T04:51:18;14.40;93.10
42095;DHT22;27753;55.724;37.612;2023-09-18T04:53:44;14.50;93.10
42095;DHT22;27753;55.724;37.612;2023-09-18T04:56:10;14.40;93.10
42095;DHT22;27753;55.724;37.612;2023-09-18T04:58:37;14.50;93.10
42095;DHT22;27753;55.724;37.612;2023-09-18T05:01:03;14.60;93.10
42095;DHT22;27753;55.724;37.612;2023-09-18T05:03:36;14.70;93.00
42095;DHT22;27753;55.724;37.612;2023-09-18T05:06:02;14.80;92.80
42095;DHT22;27753;55.724;37.612;2023-09-18T05:08:31;14.90;92.70
42095;DHT22;27753;55.724;37.612;2023-09-18T05:10:57;14.90;92.60
42095;DHT22;27753;55.724;37.612;2023-09-18T05:13:23;15.00;92.50
42095;DHT22;27753;55.724;37.612;2023-09-18T05:15:49;15.00;92.50
42095;DHT22;27753;55.724;37.612;2023-09-18T05:18:15;15.10;92.50
42095;DHT22;27753;55.724;37.612;2023-09-18T05:20:40;15.10;92.50
42095;DHT22;27753;55.724;37.612;2023-09-18T05:23:06;15.20;92.40
42095;DHT22;27753;55.724;37.612;2023-09-18T05:25:33;15.30;92.20
42095;DHT22;27753;55.724;37.612;2023-09-18T05:28:03;15.40;92.00
42095;DHT22;27753;55.724;37.612;2023-09-18T05:30:32;15.40;91.90
42095;DHT22;27753;55.724;37.612;2023-09-18T05:33:00;15.40;91.80
42095;DHT22;27753;55.724;37.612;2023-09-18T05:35:40;15.50;91.70
42095;DHT22;27753;55.724;37.612;2023-09-18T05:38:07;15.40;91.70
42095;DHT22;27753;55.724;37.612;2023-09-18T05:40:34;15.50;91.80
42095;DHT22;27753;55.724;37.612;2023-09-18T05:43:00;15.60;91.70
42095;DHT22;27753;55.724;37.612;2023-09-18T05:45:26;15.60;91.60
42095;DHT22;27753;55.724;37.612;2023-09-18T05:47:52;15.60;91.60
42095;DHT22;27753;55.724;37.612;2023-09-18T05:50:32;15.60;91.60
42095;DHT22;27753;55.724;37.612;2023-09-18T05:52:59;15.60;91.60
42095;DHT22;27753;55.724;37.612;2023-09-18T05:55:26;15.70;91.60
42095;DHT22;27753;55.724;37.612;2023-09-18T05:57:53;15.80;91.40
42095;DHT22;27753;55.724;37.612;2023-09-18T06:00:19;15.90;91.30
42095;DHT22;27753;55.724;37.612;2023-09-18T06:02:46;16.00;91.30
42095;DHT22;27753;55.724;37.612;2023-09-18T06:05:12;16.10;91.00
42095;DHT22;27753;55.724;37.612;2023-09-18T06:07:38;16.20;91.00
42095;DHT22;27753;55.724;37.612;2023-09-18T06:10:04;16.20;90.80
42095;DHT22;27753;55.724;37.612;2023-09-18T06:12:30;16.30;90.60
42095;DHT22;27753;55.724;37.612;2023-09-18T06:14:56;16.50;90.60
42095;DHT22;27753;55.724;37.612;2023-09-18T06:17:22;16.60;90.30
42095;DHT22;27753;55.724;37.612;2023-09-18T06:19:48;16.70;90.30
42095;DHT22;27753;55.724;37.612;2023-09-18T06:22:14;17.00;90.00
42095;DHT22;27753;55.724;37.612;2023-09-18T06:24:40;17.30;88.40
42095;DHT22;27753;55.724;37.612;2023-09-18T06:27:06;17.50;87.40
42095;DHT22;27753;55.724;37.612;2023-09-18T06:29:33;17.60;86.60
42095;DHT22;27753;55.724;37.612;2023-09-18T06:32:00;17.70;85.90
42095;DHT22;27753;55.724;37.612;2023-09-18T06:34:26;17.80;85.80
42095;DHT22;27753;55.724;37.612;2023-09-18T06:36:53;17.80;85.30
42095;DHT22;27753;55.724;37.612;2023-09-18T06:39:19;17.80;85.40
42095;DHT22;27753;55.724;37.612;2023-09-18T06:41:49;17.90;85.00
42095;DHT22;27753;55.724;37.612;2023-09-18T06:44:15;17.90;84.30
42095;DHT22;27753;55.724;37.612;2023-09-18T06:46:41;17.70;84.50
42095;DHT22;27753;55.724;37.612;2023-09-18T06:49:07;17.50;85.00
42095;DHT22;27753;55.724;37.612;2023-09-18T06:51:33;17.30;85.70
42095;DHT22;27753;55.724;37.612;2023-09-18T06:53:59;17.10;86.60
42095;DHT22;27753;55.724;37.612;2023-09-18T06:56:28;17.00;87.50
42095;DHT22;27753;55.724;37.612;2023-09-18T06:58:54;17.00;87.70
42095;DHT22;27753;55.724;37.612;2023-09-18T07:01:21;17.10;87.90
42095;DHT22;27753;55.724;37.612;2023-09-18T07:03:48;17.20;87.90
42095;DHT22;27753;55.724;37.612;2023-09-18T07:06:14;17.30;87.30
42095;DHT22;27753;55.724;37.612;2023-09-18T07:08:47;17.40;87.10
42095;DHT22;27753;55.724;37.612;2023-09-18T07:11:15;17.50;86.70
42095;DHT22;27753;55.724;37.612;2023-09-18T07:13:41;17.50;86.40
42095;DHT22;27753;55.724;37.612;2023-09-18T07:16:08;17.50;86.40
42095;DHT22;27753;55.724;37.612;2023-09-18T07:18:34;17.40;86.70
42095;DHT22;27753;55.724;37.612;2023-09-18T07:21:00;17.50;86.40
42095;DHT22;27753;55.724;37.612;2023-09-18T07:23:26;17.50;86.20
42095;DHT22;27753;55.724;37.612;2023-09-18T07:25:53;17.60;86.30
42095;DHT22;27753;55.724;37.612;2023-09-18T07:28:18;17.60;85.60
42095;DHT22;27753;55.724;37.612;2023-09-18T07:30:45;17.40;85.60
42095;DHT22;27753;55.724;37.612;2023-09-18T07:33:12;17.30;86.50
42095;DHT22;27753;55.724;37.612;2023-09-18T07:35:38;17.40;86.50
42095;DHT22;27753;55.724;37.612;2023-09-18T07:38:04;17.30;86.30
42095;DHT22;27753;55.724;37.612;2023-09-18T07:40:30;17.20;87.00
42095;DHT22;27753;55.724;37.612;2023-09-18T07:42:56;17.10;87.40
42095;DHT22;27753;55.724;37.612;2023-09-18T07:45:23;17.00;87.80
42095;DHT22;27753;55.724;37.612;2023-09-18T07:47:49;17.10;87.80
42095;DHT22;27753;55.724;37.612;2023-09-18T07:50:15;17.20;87.70
42095;DHT22;27753;55.724;37.612;2023-09-18T07:52:42;17.20;87.40
42095;DHT22;27753;55.724;37.612;2023-09-18T07:55:08;17.20;87.30
42095;DHT22;27753;55.724;37.612;2023-09-18T07:57:35;17.30;87.40
42095;DHT22;27753;55.724;37.612;2023-09-18T08:00:04;17.20;87.40
42095;DHT22;27753;55.724;37.612;2023-09-18T08:02:33;17.10;87.70
42095;DHT22;27753;55.724;37.612;2023-09-18T08:05:01;17.10;87.90
42095;DHT22;27753;55.724;37.612;2023-09-18T08:07:28;17.10;88.10
42095;DHT22;27753;55.724;37.612;2023-09-18T08:09:54;17.20;88.80
42095;DHT22;27753;55.724;37.612;2023-09-18T08:12:20;17.30;87.10
42095;DHT22;27753;55.724;37.612;2023-09-18T08:14:45;17.40;87.50
42095;DHT22;27753;55.724;37.612;2023-09-18T08:17:12;17.50;86.90
42095;DHT22;27753;55.724;37.612;2023-09-18T08:19:38;17.50;86.70
42095;DHT22;27753;55.724;37.612;2023-09-18T08:22:05;17.40;86.60
42095;DHT22;27753;55.724;37.612;2023-09-18T08:24:31;17.40;86.90
42095;DHT22;27753;55.724;37.612;2023-09-18T08:26:57;17.40;87.00
42095;DHT22;27753;55.724;37.612;2023-09-18T08:29:23;17.50;87.10
42095;DHT22;27753;55.724;37.612;2023-09-18T08:31:49;17.70;86.70
42095;DHT22;27753;55.724;37.612;2023-09-18T08:34:16;17.80;86.40
42095;DHT22;27753;55.724;37.612;2023-09-18T08:36:42;17.80;85.90
42095;DHT22;27753;55.724;37.612;2023-09-18T08:39:08;17.80;85.90
42095;DHT22;27753;55.724;37.612;2023-09-18T08:41:38;17.80;86.10
42095;DHT22;27753;55.724;37.612;2023-09-18T08:44:08;18.00;85.90
42095;DHT22;27753;55.724;37.612;2023-09-18T08:46:35;18.80;85.30
42095;DHT22;27753;55.724;37.612;2023-09-18T08:49:02;19.70;82.20
42095;DHT22;27753;55.724;37.612;2023-09-18T08:51:28;20.40;79.20
42095;DHT22;27753;55.724;37.612;2023-09-18T08:53:55;20.50;77.40
42095;DHT22;27753;55.724;37.612;2023-09-18T08:56:22;20.40;77.50
42095;DHT22;27753;55.724;37.612;2023-09-18T08:58:49;20.10;77.80
42095;DHT22;27753;55.724;37.612;2023-09-18T09:01:15;19.70;78.50
42095;DHT22;27753;55.724;37.612;2023-09-18T09:03:42;19.40;79.60
42095;DHT22;27753;55.724;37.612;2023-09-18T09:06:09;19.20;80.70
42095;DHT22;27753;55.724;37.612;2023-09-18T09:08:35;19.00;81.60
42095;DHT22;27753;55.724;37.612;2023-09-18T09:11:02;18.90;82.40
42095;DHT22;27753;55.724;37.612;2023-09-18T09:13:28;19.30;82.30
42095;DHT22;27753;55.724;37.612;2023-09-18T09:15:56;19.80;81.00
42095;DHT22;27753;55.724;37.612;2023-09-18T09:18:28;20.10;79.60
42095;DHT22;27753;55.724;37.612;2023-09-18T09:23:24;19.80;79.10
42095;DHT22;27753;55.724;37.612;2023-09-18T09:25:51;19.60;79.70
42095;DHT22;27753;55.724;37.612;2023-09-18T09:28:31;19.30;80.30
42095;DHT22;27753;55.724;37.612;2023-09-18T09:31:01;18.90;81.60
42095;DHT22;27753;55.724;37.612;2023-09-18T09:33:31;18.50;83.10
42095;DHT22;27753;55.724;37.612;2023-09-18T09:35:58;18.40;84.00
42095;DHT22;27753;55.724;37.612;2023-09-18T09:38:31;18.20;84.30
42095;DHT22;27753;55.724;37.612;2023-09-18T09:40:58;18.00;85.30
42095;DHT22;27753;55.724;37.612;2023-09-18T09:43:27;18.00;86.60
42095;DHT22;27753;55.724;37.612;2023-09-18T09:46:00;17.90;86.30
42095;DHT22;27753;55.724;37.612;2023-09-18T09:48:27;17.70;86.50
42095;DHT22;27753;55.724;37.612;2023-09-18T09:50:58;17.50;88.20
42095;DHT22;27753;55.724;37.612;2023-09-18T09:53:45;17.20;89.50
42095;DHT22;27753;55.724;37.612;2023-09-18T09:56:13;16.80;90.50
42095;DHT22;27753;55.724;37.612;2023-09-18T09:58:39;16.60;91.40
42095;DHT22;27753;55.724;37.612;2023-09-18T10:01:12;16.60;92.20
42095;DHT22;27753;55.724;37.612;2023-09-18T10:03:44;16.70;92.40
42095;DHT22;27753;55.724;37.612;2023-09-18T10:06:11;16.90;92.60
42095;DHT22;27753;55.724;37.612;2023-09-18T10:08:40;17.10;92.30
42095;DHT22;27753;55.724;37.612;2023-09-18T10:11:07;17.30;91.70
42095;DHT22;27753;55.724;37.612;2023-09-18T10:13:51;17.40;91.20
42095;DHT22;27753;55.724;37.612;2023-09-18T10:16:22;17.60;91.60
42095;DHT22;27753;55.724;37.612;2023-09-18T10:19:17;18.00;91.40
42095;DHT22;27753;55.724;37.612;2023-09-18T10:21:49;18.30;90.40
42095;DHT22;27753;55.724;37.612;2023-09-18T10:24:26;18.40;89.90
42095;DHT22;27753;55.724;37.612;2023-09-18T10:27:01;18.40;89.50
42095;DHT22;27753;55.724;37.612;2023-09-18T10:29:33;18.30;89.60
42095;DHT22;27753;55.724;37.612;2023-09-18T10:32:03;18.10;90.10
42095;DHT22;27753;55.724;37.612;2023-09-18T10:34:30;18.10;90.50
42095;DHT22;27753;55.724;37.612;2023-09-18T10:37:00;18.20;90.10
42095;DHT22;27753;55.724;37.612;2023-09-18T10:39:28;18.20;89.70
42095;DHT22;27753;55.724;37.612;2023-09-18T10:41:55;18.20;90.10
42095;DHT22;27753;55.724;37.612;2023-09-18T10:44:23;18.40;89.80
42095;DHT22;27753;55.724;37.612;2023-09-18T10:46:50;18.40;89.20
42095;DHT22;27753;55.724;37.612;2023-09-18T10:49:20;18.40;88.60
42095;DHT22;27753;55.724;37.612;2023-09-18T10:51:47;18.20;88.70
42095;DHT22;27753;55.724;37.612;2023-09-18T10:54:20;18.20;89.00
42095;DHT22;27753;55.724;37.612;2023-09-18T10:56:46;18.10;90.10
42095;DHT22;27753;55.724;37.612;2023-09-18T10:59:14;18.20;89.40
42095;DHT22;27753;55.724;37.612;2023-09-18T11:01:41;18.20;89.00
42095;DHT22;27753;55.724;37.612;2023-09-18T11:04:08;18.30;88.80
42095;DHT22;27753;55.724;37.612;2023-09-18T11:09:41;18.60;88.30
42095;DHT22;27753;55.724;37.612;2023-09-18T11:12:09;18.70;87.90
42095;DHT22;27753;55.724;37.612;2023-09-18T11:14:46;18.90;87.20
42095;DHT22;27753;55.724;37.612;2023-09-18T11:17:36;19.00;87.30
42095;DHT22;27753;55.724;37.612;2023-09-18T11:20:15;18.90;86.50
42095;DHT22;27753;55.724;37.612;2023-09-18T11:22:59;18.80;86.80
42095;DHT22;27753;55.724;37.612;2023-09-18T11:25:39;18.80;86.70
42095;DHT22;27753;55.724;37.612;2023-09-18T11:28:29;18.80;87.00
42095;DHT22;27753;55.724;37.612;2023-09-18T11:30:57;18.80;87.10
42095;DHT22;27753;55.724;37.612;2023-09-18T11:33:46;18.80;87.00
42095;DHT22;27753;55.724;37.612;2023-09-18T11:36:14;19.00;87.00
42095;DHT22;27753;55.724;37.612;2023-09-18T11:38:54;19.00;86.60
42095;DHT22;27753;55.724;37.612;2023-09-18T11:41:23;19.00;86.00
42095;DHT22;27753;55.724;37.612;2023-09-18T11:43:51;18.90;85.80
42095;DHT22;27753;55.724;37.612;2023-09-18T11:46:20;18.90;85.90
42095;DHT22;27753;55.724;37.612;2023-09-18T11:48:49;18.80;86.20
42095;DHT22;27753;55.724;37.612;2023-09-18T11:51:22;18.80;86.80
42095;DHT22;27753;55.724;37.612;2023-09-18T11:53:51;18.80;86.30
42095;DHT22;27753;55.724;37.612;2023-09-18T11:56:19;18.70;86.40
42095;DHT22;27753;55.724;37.612;2023-09-18T11:58:50;18.70;86.40
42095;DHT22;27753;55.724;37.612;2023-09-18T12:01:18;18.70;86.70
42095;DHT22;27753;55.724;37.612;2023-09-18T12:03:44;18.60;87.00
42095;DHT22;27753;55.724;37.612;2023-09-18T12:06:10;18.60;87.60
42095;DHT22;27753;55.724;37.612;2023-09-18T12:08:41;18.40;87.90
42095;DHT22;27753;55.724;37.612;2023-09-18T12:11:07;18.20;88.40
42095;DHT22;27753;55.724;37.612;2023-09-18T12:13:33;18.20;88.90
42095;DHT22;27753;55.724;37.612;2023-09-18T12:16:04;18.30;89.30
42095;DHT22;27753;55.724;37.612;2023-09-18T12:18:33;18.30;88.60
42095;DHT22;27753;55.724;37.612;2023-09-18T12:21:02;18.30;88.80
42095;DHT22;27753;55.724;37.612;2023-09-18T12:23:41;18.30;89.10
42095;DHT22;27753;55.724;37.612;2023-09-18T12:26:12;18.20;89.30
42095;DHT22;27753;55.724;37.612;2023-09-18T12:28:42;18.20;89.40
42095;DHT22;27753;55.724;37.612;2023-09-18T12:31:15;18.10;89.80
42095;DHT22;27753;55.724;37.612;2023-09-18T12:33:42;18.10;89.80
42095;DHT22;27753;55.724;37.612;2023-09-18T12:36:19;18.00;89.90
42095;DHT22;27753;55.724;37.612;2023-09-18T12:38:59;17.90;90.00
42095;DHT22;27753;55.724;37.612;2023-09-18T12:41:26;17.80;90.50
42095;DHT22;27753;55.724;37.612;2023-09-18T12:43:53;17.70;90.40
42095;DHT22;27753;55.724;37.612;2023-09-18T12:46:19;17.80;90.50
42095;DHT22;27753;55.724;37.612;2023-09-18T12:48:47;17.70;90.50
42095;DHT22;27753;55.724;37.612;2023-09-18T12:51:13;17.70;90.60
42095;DHT22;27753;55.724;37.612;2023-09-18T12:53:40;17.70;90.60
42095;DHT22;27753;55.724;37.612;2023-09-18T12:56:13;17.70;90.60
42095;DHT22;27753;55.724;37.612;2023-09-18T12:58:41;17.60;90.60
42095;DHT22;27753;55.724;37.612;2023-09-18T13:01:09;17.50;90.80
42095;DHT22;27753;55.724;37.612;2023-09-18T13:03:43;17.50;90.90
42095;DHT22;27753;55.724;37.612;2023-09-18T13:06:10;17.50;91.00
42095;DHT22;27753;55.724;37.612;2023-09-18T13:08:37;17.40;91.00
42095;DHT22;27753;55.724;37.612;2023-09-18T13:11:03;17.30;91.10
42095;DHT22;27753;55.724;37.612;2023-09-18T13:13:30;17.30;91.20
42095;DHT22;27753;55.724;37.612;2023-09-18T13:16:00;17.30;91.40
42095;DHT22;27753;55.724;37.612;2023-09-18T13:18:26;17.30;91.50
42095;DHT22;27753;55.724;37.612;2023-09-18T13:20:53;17.30;91.40
42095;DHT22;27753;55.724;37.612;2023-09-18T13:23:19;17.30;91.50
42095;DHT22;27753;55.724;37.612;2023-09-18T13:25:46;17.20;91.60
42095;DHT22;27753;55.724;37.612;2023-09-18T13:28:13;17.20;91.60
42095;DHT22;27753;55.724;37.612;2023-09-18T13:30:40;17.10;91.60
42095;DHT22;27753;55.724;37.612;2023-09-18T13:33:11;17.10;91.80
42095;DHT22;27753;55.724;37.612;2023-09-18T13:35:42;17.10;91.60
42095;DHT22;27753;55.724;37.612;2023-09-18T13:38:08;17.00;92.00
42095;DHT22;27753;55.724;37.612;2023-09-18T13:40:41;17.00;92.00
42095;DHT22;27753;55.724;37.612;2023-09-18T13:43:08;16.90;92.10
42095;DHT22;27753;55.724;37.612;2023-09-18T13:45:35;16.90;92.20
42095;DHT22;27753;55.724;37.612;2023-09-18T13:48:02;16.90;92.30
42095;DHT22;27753;55.724;37.612;2023-09-18T13:50:28;17.00;92.40
42095;DHT22;27753;55.724;37.612;2023-09-18T13:52:54;17.00;92.30
42095;DHT22;27753;55.724;37.612;2023-09-18T13:55:20;17.10;92.30
42095;DHT22;27753;55.724;37.612;2023-09-18T13:57:47;17.10;92.30
42095;DHT22;27753;55.724;37.612;2023-09-18T14:00:13;17.10;92.30
42095;DHT22;27753;55.724;37.612;2023-09-18T14:02:40;17.20;92.10
42095;DHT22;27753;55.724;37.612;2023-09-18T14:05:07;17.30;91.90
42095;DHT22;27753;55.724;37.612;2023-09-18T14:07:33;17.30;91.40
42095;DHT22;27753;55.724;37.612;2023-09-18T14:10:01;17.30;91.20
42095;DHT22;27753;55.724;37.612;2023-09-18T14:12:30;17.20;91.10
42095;DHT22;27753;55.724;37.612;2023-09-18T14:14:57;17.10;91.10
42095;DHT22;27753;55.724;37.612;2023-09-18T14:17:23;17.00;91.00
42095;DHT22;27753;55.724;37.612;2023-09-18T14:19:49;16.80;91.30
42095;DHT22;27753;55.724;37.612;2023-09-18T14:22:16;16.70;91.60
42095;DHT22;27753;55.724;37.612;2023-09-18T14:24:42;16.50;92.10
42095;DHT22;27753;55.724;37.612;2023-09-18T14:27:08;16.40;92.10
42095;DHT22;27753;55.724;37.612;2023-09-18T14:29:34;16.30;92.30
42095;DHT22;27753;55.724;37.612;2023-09-18T14:32:00;16.20;92.50
42095;DHT22;27753;55.724;37.612;2023-09-18T14:34:26;16.10;92.70
42095;DHT22;27753;55.724;37.612;2023-09-18T14:36:52;16.00;92.90
42095;DHT22;27753;55.724;37.612;2023-09-18T14:39:18;15.90;93.10
42095;DHT22;27753;55.724;37.612;2023-09-18T14:41:43;15.80;93.20
42095;DHT22;27753;55.724;37.612;2023-09-18T14:44:10;15.80;93.50
42095;DHT22;27753;55.724;37.612;2023-09-18T14:46:37;15.70;93.60
42095;DHT22;27753;55.724;37.612;2023-09-18T14:49:03;15.70;93.80
42095;DHT22;27753;55.724;37.612;2023-09-18T14:51:30;15.70;93.90
42095;DHT22;27753;55.724;37.612;2023-09-18T14:53:57;15.70;93.90
42095;DHT22;27753;55.724;37.612;2023-09-18T14:56:23;15.70;94.30
42095;DHT22;27753;55.724;37.612;2023-09-18T14:58:49;15.60;94.20
42095;DHT22;27753;55.724;37.612;2023-09-18T15:01:17;15.50;94.30
42095;DHT22;27753;55.724;37.612;2023-09-18T15:03:43;15.50;94.40
42095;DHT22;27753;55.724;37.612;2023-09-18T15:06:10;15.50;94.60
42095;DHT22;27753;55.724;37.612;2023-09-18T15:08:36;15.40;94.80
42095;DHT22;27753;55.724;37.612;2023-09-18T15:11:03;15.40;94.80
42095;DHT22;27753;55.724;37.612;2023-09-18T15:13:32;15.40;95.00
42095;DHT22;27753;55.724;37.612;2023-09-18T15:15:58;15.30;95.10
42095;DHT22;27753;55.724;37.612;2023-09-18T15:18:25;15.30;95.30
42095;DHT22;27753;55.724;37.612;2023-09-18T15:20:51;15.20;95.30
42095;DHT22;27753;55.724;37.612;2023-09-18T15:23:26;15.20;95.50
42095;DHT22;27753;55.724;37.612;2023-09-18T15:25:52;15.20;95.60